Time;durP1;ratioP1;P1;durP2;ratioP2;P2;SDS_P1;SDS_P2;PMS_P1;PMS_P2;Temp;Humidity;BMP_temperature;BMP_pressure;BME280_temperature;BME280_humidity;BME280_pressure;Samples;Min_cycle;Max_cycle;Signal;HPM_P1;HPM_P2
2021/11/22 00:00:50;;;;;;;6.80;1.90;;;6.10;99.90;;;;;;5132908;27;20050;-65
2021/11/22 00:03:16;;;;;;;6.53;2.42;;;6.10;99.90;;;;;;5122009;27;20074;-65
2021/11/22 00:05:41;;;;;;;8.10;2.78;;;6.10;99.90;;;;;;5128981;27;20046;-65
2021/11/22 00:08:07;;;;;;;10.07;2.90;;;6.10;99.90;;;;;;5121575;27;20395;-65
2021/11/22 00:10:34;;;;;;;5.57;2.10;;;6.20;99.90;;;;;;5123688;27;20036;-65
2021/11/22 00:13:00;;;;;;;6.18;2.10;;;6.20;99.90;;;;;;5146041;27;20453;-65
2021/11/22 00:15:26;;;;;;;8.32;2.33;;;6.10;99.90;;;;;;5122002;28;20040;-65
2021/11/22 00:17:52;;;;;;;4.07;1.90;;;6.10;99.90;;;;;;5122398;28;20073;-65
2021/11/22 00:20:21;;;;;;;4.55;1.58;;;6.00;99.90;;;;;;5138364;27;20036;-65
2021/11/22 00:22:47;;;;;;;8.30;1.55;;;6.00;99.90;;;;;;5122238;27;20048;-65
2021/11/22 00:25:14;;;;;;;4.43;1.38;;;6.00;99.90;;;;;;5127184;27;20039;-65
2021/11/22 00:27:40;;;;;;;4.63;1.58;;;6.00;99.90;;;;;;5142500;27;20069;-65
2021/11/22 00:30:06;;;;;;;6.28;2.25;;;6.00;99.90;;;;;;5132507;27;20484;-65
2021/11/22 00:32:35;;;;;;;5.53;1.73;;;5.90;99.90;;;;;;5115827;28;20039;-65
2021/11/22 00:35:06;;;;;;;6.82;2.75;;;6.00;99.90;;;;;;5119873;27;20612;-65
2021/11/22 00:37:32;;;;;;;6.90;2.30;;;6.00;99.90;;;;;;5137019;27;20114;-65
2021/11/22 00:40:02;;;;;;;4.88;2.53;;;5.90;99.90;;;;;;5107519;28;20495;-65
2021/11/22 00:42:28;;;;;;;3.72;1.40;;;5.90;99.90;;;;;;5114783;28;20069;-65
2021/11/22 00:44:54;;;;;;;5.15;1.55;;;5.90;99.90;;;;;;5122293;27;20106;-65
2021/11/22 00:47:20;;;;;;;3.85;1.42;;;5.80;99.90;;;;;;5144259;27;20035;-65
2021/11/22 00:49:47;;;;;;;7.15;1.40;;;5.80;99.90;;;;;;5107481;28;20054;-65
2021/11/22 00:52:13;;;;;;;3.88;1.90;;;5.80;99.90;;;;;;5112051;27;20094;-65
2021/11/22 00:54:39;;;;;;;5.90;2.40;;;5.80;99.90;;;;;;5108027;28;20076;-65
2021/11/22 00:57:05;;;;;;;7.28;2.08;;;5.70;99.90;;;;;;5141089;27;20039;-65
2021/11/22 00:59:31;;;;;;;4.13;1.95;;;5.70;99.90;;;;;;5146676;27;20086;-65
2021/11/22 01:01:57;;;;;;;8.10;2.70;;;5.70;99.90;;;;;;5128229;27;20035;-65
2021/11/22 01:04:23;;;;;;;4.40;2.20;;;5.60;99.90;;;;;;5146391;27;20047;-65
2021/11/22 01:06:48;;;;;;;7.18;3.15;;;5.50;99.90;;;;;;5128136;27;20123;-65
2021/11/22 01:09:15;;;;;;;7.10;2.30;;;5.50;99.90;;;;;;5137653;27;20051;-65
2021/11/22 01:11:40;;;;;;;9.40;2.80;;;5.70;99.90;;;;;;5146765;27;20043;-65
2021/11/22 01:14:07;;;;;;;5.88;2.78;;;5.70;99.90;;;;;;5146566;27;20071;-65
2021/11/22 01:16:33;;;;;;;7.32;2.65;;;5.70;99.90;;;;;;5127680;27;20047;-65
2021/11/22 01:19:00;;;;;;;9.40;2.03;;;5.70;99.90;;;;;;5108043;28;20040;-65
2021/11/22 01:21:27;;;;;;;5.88;1.88;;;5.70;99.90;;;;;;5124836;28;20044;-65
2021/11/22 01:23:53;;;;;;;7.75;2.55;;;5.60;99.90;;;;;;5118983;28;20103;-65
2021/11/22 01:26:20;;;;;;;5.05;2.45;;;5.60;99.90;;;;;;5144500;27;20047;-65
2021/11/22 01:28:46;;;;;;;6.05;2.10;;;5.60;99.90;;;;;;5126404;27;20051;-65
2021/11/22 01:31:12;;;;;;;5.88;1.70;;;5.60;99.90;;;;;;5126305;28;20052;-65
2021/11/22 01:33:38;;;;;;;5.03;2.00;;;5.60;99.90;;;;;;5141531;28;20082;-65
2021/11/22 01:36:04;;;;;;;3.75;1.65;;;5.60;99.90;;;;;;5095249;28;20079;-65
2021/11/22 01:38:30;;;;;;;4.93;1.95;;;5.60;99.90;;;;;;5109185;28;20056;-65
2021/11/22 01:40:56;;;;;;;3.85;1.40;;;5.50;99.90;;;;;;5120553;28;20040;-65
2021/11/22 01:43:22;;;;;;;3.75;1.80;;;5.50;99.90;;;;;;5119171;28;20518;-65
2021/11/22 01:45:50;;;;;;;6.10;1.73;;;5.50;99.90;;;;;;5125316;28;20044;-65
2021/11/22 01:48:17;;;;;;;2.40;1.13;;;5.40;99.90;;;;;;5089035;28;20044;-65
2021/11/22 01:50:45;;;;;;;3.08;1.25;;;5.40;99.90;;;;;;5086746;28;20059;-65
2021/11/22 01:53:12;;;;;;;4.57;1.30;;;5.40;99.90;;;;;;5134606;28;20082;-65
2021/11/22 01:55:38;;;;;;;4.75;1.20;;;5.30;99.90;;;;;;5113231;28;20121;-65
2021/11/22 01:58:04;;;;;;;5.78;1.33;;;5.30;99.90;;;;;;5125091;28;20048;-65
2021/11/22 02:00:38;;;;;;;10.38;1.40;;;5.20;99.90;;;;;;5125661;28;20127;-65
2021/11/22 02:03:06;;;;;;;4.07;1.40;;;5.20;99.90;;;;;;5107083;28;20119;-65
2021/11/22 02:05:32;;;;;;;4.55;1.38;;;5.20;99.90;;;;;;5096694;28;20082;-65
2021/11/22 02:07:59;;;;;;;3.22;1.17;;;5.20;99.90;;;;;;5103421;28;20050;-65
2021/11/22 02:10:26;;;;;;;7.35;1.45;;;5.10;99.90;;;;;;5105668;28;20036;-65
2021/11/22 02:12:52;;;;;;;4.38;1.27;;;5.00;99.90;;;;;;5104973;28;20043;-65
2021/11/22 02:15:20;;;;;;;3.85;1.30;;;5.00;99.90;;;;;;5104791;28;20040;-65
2021/11/22 02:17:47;;;;;;;3.78;1.38;;;4.90;99.90;;;;;;5086491;28;20051;-65
2021/11/22 02:20:16;;;;;;;4.68;1.58;;;4.90;99.90;;;;;;5086881;28;20060;-65
2021/11/22 02:22:47;;;;;;;3.58;1.15;;;4.90;99.90;;;;;;5090622;28;20165;-65
2021/11/22 02:25:15;;;;;;;7.80;2.28;;;4.90;99.90;;;;;;5090370;28;20056;-65
2021/11/22 02:27:43;;;;;;;5.35;1.23;;;4.90;99.90;;;;;;5113953;28;20058;-65
2021/11/22 02:30:10;;;;;;;2.67;1.20;;;4.90;99.90;;;;;;5128519;28;20047;-65
2021/11/22 02:32:38;;;;;;;7.03;1.40;;;4.90;99.90;;;;;;5129038;28;20044;-65
2021/11/22 02:35:07;;;;;;;5.22;1.30;;;4.90;99.90;;;;;;5127471;27;20058;-65
2021/11/22 02:37:33;;;;;;;4.35;1.60;;;4.80;99.90;;;;;;5120379;28;20043;-65
2021/11/22 02:39:58;;;;;;;6.47;1.40;;;4.80;99.90;;;;;;5125967;27;20054;-65
2021/11/22 02:42:30;;;;;;;5.32;1.45;;;4.70;99.90;;;;;;5149177;27;20108;-65
2021/11/22 02:44:58;;;;;;;4.70;1.25;;;4.70;99.90;;;;;;5130629;27;20051;-65
2021/11/22 02:47:24;;;;;;;5.13;1.20;;;4.60;99.90;;;;;;5130465;27;20054;-65
2021/11/22 02:49:51;;;;;;;2.95;1.52;;;4.50;99.90;;;;;;5130644;27;20055;-65
2021/11/22 02:52:17;;;;;;;3.53;1.10;;;4.30;99.90;;;;;;5130884;27;20517;-65
2021/11/22 02:54:44;;;;;;;4.63;1.20;;;4.20;99.90;;;;;;5131078;27;20051;-65
2021/11/22 02:57:11;;;;;;;2.42;1.20;;;4.10;99.90;;;;;;5141789;27;20039;-65
2021/11/22 02:59:39;;;;;;;2.95;1.50;;;3.90;99.90;;;;;;5148700;27;20058;-65
2021/11/22 03:02:11;;;;;;;2.95;1.15;;;3.80;99.90;;;;;;5130376;27;20506;-65
2021/11/22 03:04:42;;;;;;;5.15;1.20;;;3.70;99.90;;;;;;5148947;27;20050;-65
2021/11/22 03:07:08;;;;;;;6.68;1.33;;;3.60;99.90;;;;;;5130630;27;20453;-65
2021/11/22 03:09:35;;;;;;;6.95;2.70;;;3.50;99.90;;;;;;5129548;27;20051;-65
2021/11/22 03:12:04;;;;;;;6.13;1.38;;;3.50;99.90;;;;;;5130354;27;20448;-65
2021/11/22 03:14:31;;;;;;;6.15;1.30;;;3.50;99.90;;;;;;5148935;27;20071;-65
2021/11/22 03:16:57;;;;;;;5.43;1.50;;;3.60;99.90;;;;;;5130634;27;20035;-65
2021/11/22 03:19:23;;;;;;;8.85;1.48;;;3.60;99.90;;;;;;5129746;27;20058;-65
2021/11/22 03:21:49;;;;;;;3.42;1.23;;;3.60;99.90;;;;;;5130407;27;20130;-65
2021/11/22 03:24:15;;;;;;;4.47;1.30;;;3.70;99.90;;;;;;5130370;27;20043;-65
2021/11/22 03:26:41;;;;;;;3.95;1.20;;;3.70;99.90;;;;;;5129978;27;20047;-65
2021/11/22 03:29:09;;;;;;;2.22;1.30;;;3.80;99.90;;;;;;5112560;27;20055;-65
2021/11/22 03:31:36;;;;;;;4.07;1.67;;;3.90;99.90;;;;;;5129361;27;20108;-65
2021/11/22 03:34:04;;;;;;;4.35;1.60;;;4.00;99.90;;;;;;5148036;27;20071;-65
2021/11/22 03:36:31;;;;;;;2.97;1.25;;;4.10;99.90;;;;;;5148320;27;20043;-65
2021/11/22 03:38:58;;;;;;;7.85;2.35;;;4.10;99.90;;;;;;5144212;27;20094;-65
2021/11/22 03:41:25;;;;;;;3.22;1.40;;;4.10;99.90;;;;;;5130013;27;20061;-65
2021/11/22 03:43:57;;;;;;;3.80;1.75;;;4.20;99.90;;;;;;5129322;27;20055;-65
2021/11/22 03:46:23;;;;;;;2.92;1.25;;;4.30;99.90;;;;;;5129768;27;20376;-65
2021/11/22 03:48:49;;;;;;;5.97;1.70;;;4.40;99.90;;;;;;5129057;27;20058;-65
2021/11/22 03:51:17;;;;;;;6.38;1.55;;;4.40;99.90;;;;;;5148126;27;20054;-65
2021/11/22 03:53:43;;;;;;;4.10;1.13;;;4.40;99.90;;;;;;5147862;27;20045;-65
2021/11/22 03:56:09;;;;;;;6.10;2.10;;;4.40;99.90;;;;;;5120624;28;20050;-65
2021/11/22 03:58:35;;;;;;;3.47;1.55;;;4.40;99.90;;;;;;5124730;27;20050;-65
2021/11/22 04:01:02;;;;;;;3.70;1.50;;;4.40;99.90;;;;;;5147386;27;20043;-65
2021/11/22 04:03:27;;;;;;;4.80;2.03;;;4.40;99.90;;;;;;5128367;27;20074;-65
2021/11/22 04:05:53;;;;;;;4.60;1.83;;;4.40;99.90;;;;;;5147301;27;20475;-65
2021/11/22 04:08:19;;;;;;;4.32;1.80;;;4.40;99.90;;;;;;5146517;27;20040;-65
2021/11/22 04:10:45;;;;;;;5.15;1.40;;;4.40;99.90;;;;;;5128186;27;20079;-65
2021/11/22 04:13:11;;;;;;;6.43;1.55;;;4.30;99.90;;;;;;5129005;27;20035;-65
2021/11/22 04:15:38;;;;;;;1.90;1.05;;;4.30;99.90;;;;;;5146712;27;20051;-65
2021/11/22 04:18:05;;;;;;;5.13;1.40;;;4.30;99.90;;;;;;5146912;27;20042;-65
2021/11/22 04:20:31;;;;;;;2.30;1.25;;;4.30;99.90;;;;;;5146886;27;20047;-65
2021/11/22 04:22:57;;;;;;;5.13;1.33;;;4.20;99.90;;;;;;5146673;27;20502;-65
2021/11/22 04:25:23;;;;;;;7.03;1.50;;;4.10;99.90;;;;;;5128316;27;20039;-65
2021/11/22 04:27:49;;;;;;;3.30;1.30;;;4.10;99.90;;;;;;5146810;27;20050;-65
2021/11/22 04:30:16;;;;;;;4.90;1.42;;;3.90;99.90;;;;;;5127585;27;20085;-65
2021/11/22 04:32:42;;;;;;;3.78;1.20;;;3.80;99.90;;;;;;5147062;27;20055;-65
2021/11/22 04:35:11;;;;;;;8.10;1.67;;;3.70;99.90;;;;;;5128588;27;20043;-65
2021/11/22 04:37:37;;;;;;;4.38;2.03;;;3.60;99.90;;;;;;5137423;27;20372;-65
2021/11/22 04:40:07;;;;;;;3.15;1.08;;;3.40;99.90;;;;;;5145807;27;20067;-65
2021/11/22 04:42:33;;;;;;;2.97;1.20;;;3.10;99.90;;;;;;5124998;27;20050;-65
2021/11/22 04:44:58;;;;;;;3.53;1.15;;;3.00;99.90;;;;;;5145983;27;20035;-65
2021/11/22 04:47:24;;;;;;;4.00;1.17;;;2.90;99.90;;;;;;5146296;27;20099;-65
2021/11/22 04:49:51;;;;;;;3.30;1.10;;;2.80;99.90;;;;;;5127400;27;20118;-65
2021/11/22 04:52:18;;;;;;;3.80;1.15;;;2.70;99.90;;;;;;5127768;27;20047;-65
2021/11/22 04:54:45;;;;;;;3.60;1.20;;;2.70;99.90;;;;;;5127265;27;20117;-65
2021/11/22 04:57:11;;;;;;;3.10;0.95;;;2.50;99.90;;;;;;5124191;27;20118;-65
2021/11/22 04:59:37;;;;;;;4.25;1.40;;;2.40;99.90;;;;;;5127220;27;20100;-65
2021/11/22 05:02:04;;;;;;;3.20;1.20;;;2.40;99.90;;;;;;5146217;27;20427;-65
2021/11/22 05:04:30;;;;;;;4.68;1.33;;;2.40;99.90;;;;;;5127254;27;20057;-65
2021/11/22 05:06:56;;;;;;;4.45;1.20;;;2.40;99.90;;;;;;5108044;28;20083;-65
2021/11/22 05:09:22;;;;;;;6.82;2.20;;;2.40;99.90;;;;;;5125706;27;20126;-65
2021/11/22 05:11:49;;;;;;;5.63;1.52;;;2.40;99.90;;;;;;5127432;27;20088;-65
2021/11/22 05:14:15;;;;;;;4.03;1.15;;;2.40;99.90;;;;;;5145869;27;20406;-65
2021/11/22 05:16:42;;;;;;;4.55;1.15;;;2.40;99.90;;;;;;5145818;27;20054;-65
2021/11/22 05:19:08;;;;;;;7.85;1.88;;;2.30;99.90;;;;;;5124677;27;20119;-65
2021/11/22 05:21:34;;;;;;;3.67;1.30;;;2.30;99.90;;;;;;5145676;27;20043;-65
2021/11/22 05:24:01;;;;;;;4.95;1.55;;;2.30;99.90;;;;;;5127520;27;20039;-65
2021/11/22 05:26:29;;;;;;;4.75;1.48;;;2.40;99.90;;;;;;5146316;27;20047;-65
2021/11/22 05:28:54;;;;;;;4.30;1.30;;;2.50;99.90;;;;;;5146231;27;20126;-65
2021/11/22 05:31:20;;;;;;;5.03;1.10;;;2.60;99.90;;;;;;5121751;28;20410;-65
2021/11/22 05:33:46;;;;;;;5.03;1.27;;;2.50;99.90;;;;;;5145221;27;20090;-65
2021/11/22 05:36:12;;;;;;;3.35;1.10;;;2.50;99.90;;;;;;5145570;28;20046;-65
2021/11/22 05:38:38;;;;;;;4.15;1.40;;;2.50;99.90;;;;;;5145730;28;20050;-64
2021/11/22 05:41:03;;;;;;;5.85;1.33;;;2.40;99.90;;;;;;5090689;28;20039;-65
2021/11/22 05:43:29;;;;;;;6.32;1.45;;;2.40;99.90;;;;;;5125966;28;20061;-65
2021/11/22 05:45:55;;;;;;;4.63;1.00;;;2.30;99.90;;;;;;5145135;28;20067;-64
2021/11/22 05:48:20;;;;;;;4.53;1.05;;;2.20;99.90;;;;;;5127870;28;20075;-65
2021/11/22 05:50:53;;;;;;;4.40;1.10;;;2.20;99.90;;;;;;5143617;28;20039;-65
2021/11/22 05:53:20;;;;;;;4.07;1.20;;;2.20;99.90;;;;;;5095156;28;20084;-64
2021/11/22 05:55:50;;;;;;;4.47;1.13;;;2.10;99.90;;;;;;5114242;27;20111;-68
2021/11/22 05:58:15;;;;;;;7.15;1.08;;;2.10;99.90;;;;;;5111626;27;20518;-66
2021/11/22 06:00:42;;;;;;;3.15;1.00;;;2.10;99.90;;;;;;5121647;27;20050;-67
2021/11/22 06:03:08;;;;;;;2.90;1.20;;;2.10;99.90;;;;;;5112028;27;20039;-67
2021/11/22 06:05:33;;;;;;;3.03;1.00;;;2.10;99.90;;;;;;5124810;27;20395;-67
2021/11/22 06:07:59;;;;;;;3.50;1.55;;;2.00;99.90;;;;;;5111107;27;20079;-67
2021/11/22 06:10:26;;;;;;;4.88;1.20;;;1.90;99.90;;;;;;5121429;27;20115;-68
2021/11/22 06:12:51;;;;;;;2.70;1.20;;;1.80;99.90;;;;;;5112873;27;20074;-68
2021/11/22 06:15:17;;;;;;;3.95;0.93;;;1.80;99.90;;;;;;5123096;27;20051;-68
2021/11/22 06:17:43;;;;;;;2.65;1.00;;;1.80;99.90;;;;;;5112218;27;20458;-68
2021/11/22 06:20:10;;;;;;;1.88;0.90;;;1.80;99.90;;;;;;5124884;27;20039;-67
2021/11/22 06:22:36;;;;;;;2.70;1.00;;;1.80;99.90;;;;;;5107959;27;20039;-67
2021/11/22 06:25:03;;;;;;;2.30;1.00;;;1.70;99.90;;;;;;5118279;27;20103;-67
2021/11/22 06:27:29;;;;;;;3.38;1.10;;;1.70;99.90;;;;;;5110067;27;20949;-67
2021/11/22 06:29:55;;;;;;;2.95;1.08;;;1.60;99.90;;;;;;5117975;27;20515;-67
2021/11/22 06:32:25;;;;;;;2.83;1.05;;;1.50;99.90;;;;;;5112458;27;20067;-67
2021/11/22 06:34:51;;;;;;;2.72;1.00;;;1.50;99.90;;;;;;5120852;27;20047;-67
2021/11/22 06:37:17;;;;;;;3.78;1.40;;;1.60;99.90;;;;;;5113801;27;20043;-67
2021/11/22 06:39:42;;;;;;;3.38;1.77;;;1.60;99.90;;;;;;5082613;27;20104;-67
2021/11/22 06:42:08;;;;;;;3.25;1.10;;;1.60;99.90;;;;;;5111226;27;20086;-67
2021/11/22 06:44:34;;;;;;;3.58;1.30;;;1.60;99.90;;;;;;5142258;27;20372;-67
2021/11/22 06:47:01;;;;;;;2.88;1.30;;;1.50;99.90;;;;;;5110682;27;20043;-67
2021/11/22 06:49:26;;;;;;;2.80;1.40;;;1.60;99.90;;;;;;5123924;27;20100;-66
2021/11/22 06:51:52;;;;;;;4.18;1.50;;;1.60;99.90;;;;;;5108095;27;20051;-67
2021/11/22 06:54:18;;;;;;;3.85;1.30;;;1.60;99.90;;;;;;5107689;27;20043;-67
2021/11/22 06:56:44;;;;;;;3.47;1.40;;;1.60;99.90;;;;;;5129557;27;20051;-67
2021/11/22 06:59:10;;;;;;;4.80;1.30;;;1.60;99.90;;;;;;5124185;27;20039;-67
2021/11/22 07:01:36;;;;;;;2.40;1.33;;;1.50;99.90;;;;;;5130983;27;20031;-65
2021/11/22 07:04:02;;;;;;;2.20;1.52;;;1.50;99.90;;;;;;5121901;27;20061;-65
2021/11/22 07:06:28;;;;;;;3.17;1.30;;;1.50;99.90;;;;;;5109275;27;20051;-65
2021/11/22 07:08:53;;;;;;;4.40;1.45;;;1.50;99.90;;;;;;5120025;27;20053;-65
2021/11/22 07:11:19;;;;;;;3.35;1.30;;;1.60;99.90;;;;;;5120734;27;20099;-65
2021/11/22 07:13:45;;;;;;;5.15;1.95;;;1.60;99.90;;;;;;5076976;27;20062;-65
2021/11/22 07:16:12;;;;;;;4.53;2.40;;;1.60;99.90;;;;;;5118438;27;20034;-65
2021/11/22 07:18:38;;;;;;;5.82;1.67;;;1.50;99.90;;;;;;5110177;27;20163;-64
2021/11/22 07:21:04;;;;;;;4.60;1.65;;;1.50;99.90;;;;;;5141460;27;20117;-64
2021/11/22 07:23:29;;;;;;;5.97;1.77;;;1.40;99.90;;;;;;5123275;27;20065;-64
2021/11/22 07:25:56;;;;;;;4.35;1.38;;;1.40;99.90;;;;;;5115627;27;20055;-64
2021/11/22 07:28:23;;;;;;;3.47;1.60;;;1.40;99.90;;;;;;5103381;28;20058;-64
2021/11/22 07:30:50;;;;;;;3.03;1.67;;;1.30;99.90;;;;;;5120757;27;20051;-64
2021/11/22 07:33:16;;;;;;;3.58;1.42;;;1.30;99.90;;;;;;5105805;28;20048;-64
2021/11/22 07:35:43;;;;;;;5.82;1.58;;;1.30;99.90;;;;;;5121689;27;20562;-64
2021/11/22 07:38:09;;;;;;;4.10;1.67;;;1.30;99.90;;;;;;5096966;28;20091;-63
2021/11/22 07:40:36;;;;;;;5.15;1.73;;;1.40;99.90;;;;;;5107859;27;20043;-64
2021/11/22 07:43:02;;;;;;;5.35;1.70;;;1.40;99.90;;;;;;5100904;28;20582;-65
2021/11/22 07:45:27;;;;;;;4.53;1.63;;;1.50;99.90;;;;;;5117629;27;20059;-65
2021/11/22 07:47:54;;;;;;;4.82;1.80;;;1.50;99.90;;;;;;5109901;27;20051;-64
2021/11/22 07:50:22;;;;;;;9.75;4.20;;;1.60;99.90;;;;;;5120565;27;20093;-65
2021/11/22 07:52:49;;;;;;;7.78;3.50;;;1.60;99.90;;;;;;5102004;27;20071;-64
2021/11/22 07:55:14;;;;;;;8.27;3.63;;;1.60;99.90;;;;;;5113613;27;20073;-65
2021/11/22 07:57:40;;;;;;;7.22;3.95;;;1.70;99.90;;;;;;5114067;27;20059;-64
2021/11/22 08:00:08;;;;;;;9.15;4.53;;;1.70;99.90;;;;;;5130497;27;20061;-64
2021/11/22 08:02:35;;;;;;;13.98;5.82;;;1.70;99.90;;;;;;5124712;27;20066;-65
2021/11/22 08:05:03;;;;;;;11.60;5.43;;;1.60;99.90;;;;;;5113025;27;20646;-65
2021/11/22 08:07:29;;;;;;;4.95;1.80;;;1.70;99.90;;;;;;5111421;27;20039;-65
2021/11/22 08:09:57;;;;;;;6.22;2.05;;;1.70;99.90;;;;;;5116487;27;20111;-65
2021/11/22 08:12:27;;;;;;;5.50;2.00;;;1.80;99.90;;;;;;5128266;27;20067;-65
2021/11/22 08:14:58;;;;;;;5.13;2.00;;;1.90;99.90;;;;;;5111057;27;20035;-64
2021/11/22 08:17:26;;;;;;;4.13;1.85;;;2.00;99.90;;;;;;5108912;27;20053;-65
2021/11/22 08:19:52;;;;;;;2.83;2.00;;;2.00;99.90;;;;;;5118076;27;20042;-64
2021/11/22 08:22:21;;;;;;;5.03;2.03;;;2.00;99.90;;;;;;5121276;27;20054;-65
2021/11/22 08:24:52;;;;;;;4.30;2.03;;;2.00;99.90;;;;;;5121841;27;20364;-64
2021/11/22 08:27:21;;;;;;;;;;;2.10;99.90;;;;;;5107763;27;20061;-65
2021/11/22 08:29:47;;;;;;;5.45;1.75;;;2.10;99.90;;;;;;5093836;28;19920;-64
2021/11/22 08:32:13;;;;;;;4.63;2.40;;;2.10;99.90;;;;;;5102602;28;20061;-65
2021/11/22 08:34:39;;;;;;;4.70;2.35;;;2.10;99.90;;;;;;5075914;28;20040;-64
2021/11/22 08:37:05;;;;;;;5.25;2.55;;;2.10;99.90;;;;;;5103092;28;20078;-65
2021/11/22 08:39:31;;;;;;;5.80;2.20;;;2.20;99.90;;;;;;5087632;28;20055;-65
2021/11/22 08:41:57;;;;;;;4.85;2.58;;;2.20;99.90;;;;;;5098424;28;20103;-65
2021/11/22 08:44:23;;;;;;;5.47;2.20;;;2.20;99.90;;;;;;5078930;28;20076;-65
2021/11/22 08:46:48;;;;;;;5.47;2.20;;;2.30;99.90;;;;;;5100627;28;20104;-65
2021/11/22 08:49:18;;;;;;;6.93;2.25;;;2.30;99.90;;;;;;5094406;28;20113;-65
2021/11/22 08:51:44;;;;;;;4.85;2.08;;;2.40;99.90;;;;;;5108750;28;20055;-65
2021/11/22 08:54:11;;;;;;;4.65;2.08;;;2.50;99.90;;;;;;5056442;28;20082;-64
2021/11/22 08:56:36;;;;;;;4.15;2.10;;;2.50;99.90;;;;;;5116097;28;20063;-65
2021/11/22 08:59:03;;;;;;;4.90;2.33;;;2.60;99.90;;;;;;5088020;28;20048;-65
2021/11/22 09:01:30;;;;;;;6.72;2.33;;;2.70;99.90;;;;;;5105539;28;20389;-63
2021/11/22 09:03:56;;;;;;;3.28;2.10;;;2.80;99.90;;;;;;5085148;28;20051;-64
2021/11/22 09:06:22;;;;;;;6.13;2.05;;;2.90;99.90;;;;;;5094313;28;20282;-65
2021/11/22 09:08:49;;;;;;;6.18;1.85;;;3.00;99.90;;;;;;5087165;28;20142;-64
2021/11/22 09:11:16;;;;;;;4.65;1.80;;;3.20;99.90;;;;;;5089741;28;20767;-65
2021/11/22 09:13:43;;;;;;;3.75;1.70;;;3.60;99.90;;;;;;5067943;28;20067;-64
2021/11/22 09:16:10;;;;;;;3.67;1.60;;;3.80;99.90;;;;;;5100782;28;20077;-64
2021/11/22 09:18:36;;;;;;;5.03;2.40;;;4.00;99.90;;;;;;5082569;28;20055;-64
2021/11/22 09:21:02;;;;;;;4.40;2.25;;;4.10;99.90;;;;;;5091855;28;20342;-65
2021/11/22 09:23:29;;;;;;;3.03;1.92;;;4.30;99.90;;;;;;5101291;28;20059;-64
2021/11/22 09:25:55;;;;;;;4.57;1.77;;;4.40;99.90;;;;;;5095879;28;20064;-65
2021/11/22 09:28:20;;;;;;;6.15;2.30;;;4.50;99.90;;;;;;5104855;28;20051;-65
2021/11/22 09:30:47;;;;;;;4.22;2.72;;;4.50;99.90;;;;;;5127034;27;20061;-64
2021/11/22 09:33:14;;;;;;;5.82;2.53;;;4.60;99.90;;;;;;5090853;28;20048;-64
2021/11/22 09:35:41;;;;;;;3.63;2.17;;;4.70;99.90;;;;;;5137413;28;20612;-64
2021/11/22 09:38:08;;;;;;;9.48;2.25;;;4.70;99.90;;;;;;5079495;28;20107;-64
2021/11/22 09:40:34;;;;;;;4.47;2.05;;;4.80;99.90;;;;;;5105767;28;20039;-64
2021/11/22 09:43:01;;;;;;;5.43;2.58;;;4.90;99.90;;;;;;5102021;28;20048;-65
2021/11/22 09:45:28;;;;;;;5.57;1.90;;;5.00;99.90;;;;;;5125835;28;20050;-65
2021/11/22 09:47:59;;;;;;;3.60;1.30;;;5.20;99.90;;;;;;5117054;28;20055;-64
2021/11/22 09:50:27;;;;;;;4.97;1.55;;;5.30;99.90;;;;;;5127561;28;20047;-64
2021/11/22 09:52:52;;;;;;;5.82;1.90;;;5.40;99.90;;;;;;5121456;28;20035;-65
2021/11/22 09:55:18;;;;;;;5.93;1.70;;;5.40;99.90;;;;;;5128125;28;20055;-65
2021/11/22 09:57:44;;;;;;;4.85;1.70;;;5.50;99.90;;;;;;5121600;28;20075;-64
2021/11/22 10:00:12;;;;;;;4.90;1.67;;;5.50;99.90;;;;;;5106507;28;20062;-64
2021/11/22 10:02:51;;;;;;;6.18;1.50;;;5.50;99.90;;;;;;5108183;28;20039;-65
2021/11/22 10:05:25;;;;;;;5.45;1.30;;;5.60;99.90;;;;;;5115178;28;20152;-65
2021/11/22 10:08:05;;;;;;;3.28;1.42;;;5.60;99.90;;;;;;5106683;28;20075;-65
2021/11/22 10:10:45;;;;;;;4.25;1.20;;;5.70;99.90;;;;;;5115873;28;20047;-65
2021/11/22 10:13:28;;;;;;;2.63;1.15;;;5.90;99.90;;;;;;5094125;28;20074;-65
2021/11/22 10:16:21;;;;;;;5.70;1.38;;;5.90;99.90;;;;;;5106721;28;20051;-65
2021/11/22 10:18:59;;;;;;;7.60;1.80;;;6.10;99.90;;;;;;5082972;28;20048;-65
2021/11/22 10:21:35;;;;;;;6.25;1.25;;;6.10;99.90;;;;;;5134762;28;20051;-65
2021/11/22 10:24:05;;;;;;;5.82;1.40;;;6.20;99.90;;;;;;5097198;28;20146;-65
2021/11/22 10:26:41;;;;;;;;;;;6.40;99.90;;;;;;5111710;28;20058;-65
2021/11/22 10:29:09;;;;;;;6.13;1.25;;;6.40;99.90;;;;;;5100323;28;19923;-65
2021/11/22 10:31:37;;;;;;;3.63;1.13;;;6.50;99.90;;;;;;5099260;28;20062;-64
2021/11/22 10:34:04;;;;;;;2.42;1.10;;;6.50;99.90;;;;;;5101204;28;20177;-65
2021/11/22 10:36:36;;;;;;;2.47;1.08;;;6.60;99.90;;;;;;5131923;28;20585;-65
2021/11/22 10:39:04;;;;;;;2.25;1.10;;;6.60;99.90;;;;;;5090841;28;20067;-65
2021/11/22 10:41:36;;;;;;;3.63;0.80;;;6.60;99.90;;;;;;5129403;27;20350;-65
2021/11/22 10:44:10;;;;;;;2.72;0.88;;;6.70;99.90;;;;;;5107512;27;20051;-65
2021/11/22 10:46:53;;;;;;;3.53;0.82;;;6.80;99.90;;;;;;5131533;27;20057;-65
2021/11/22 10:49:33;;;;;;;4.18;0.85;;;6.90;99.90;;;;;;5103369;28;20181;-65
2021/11/22 10:52:27;;;;;;;3.17;1.17;;;6.90;99.90;;;;;;5105330;28;20047;-65
2021/11/22 10:54:59;;;;;;;3.35;1.27;;;7.10;99.90;;;;;;5078699;28;20051;-65
2021/11/22 10:57:40;;;;;;;3.03;0.80;;;7.20;99.90;;;;;;5109837;27;20035;-65
2021/11/22 11:00:18;;;;;;;7.82;1.60;;;7.20;99.90;;;;;;5102125;28;20253;-65
2021/11/22 11:02:44;;;;;;;2.30;0.85;;;7.30;99.90;;;;;;5121508;27;20047;-65
2021/11/22 11:05:25;;;;;;;1.88;0.90;;;7.40;99.90;;;;;;5105875;27;20051;-65
2021/11/22 11:08:02;;;;;;;3.10;0.80;;;7.50;99.90;;;;;;5105013;27;20043;-64
2021/11/22 11:10:28;;;;;;;1.95;1.00;;;7.60;99.90;;;;;;5114673;27;20085;-64
2021/11/22 11:12:57;;;;;;;3.92;1.10;;;7.60;99.90;;;;;;5116219;27;20059;-65
2021/11/22 11:15:24;;;;;;;3.72;0.90;;;7.80;99.90;;;;;;5097762;27;20040;-65
2021/11/22 11:17:50;;;;;;;3.22;0.95;;;7.80;99.90;;;;;;5103021;27;20055;-65
2021/11/22 11:20:19;;;;;;;1.38;0.68;;;7.90;99.90;;;;;;5099401;27;20036;-64
2021/11/22 11:22:47;;;;;;;4.80;0.70;;;8.00;99.90;;;;;;5124611;27;20071;-65
2021/11/22 11:25:14;;;;;;;4.07;0.73;;;8.00;99.90;;;;;;5120761;27;20074;-65
2021/11/22 11:27:43;;;;;;;3.15;1.25;;;8.00;99.90;;;;;;5092231;28;20080;-66
2021/11/22 11:30:15;;;;;;;4.75;1.20;;;8.10;99.90;;;;;;5110541;27;20043;-65
2021/11/22 11:32:41;;;;;;;2.33;0.80;;;8.10;99.90;;;;;;5105778;28;20138;-65
2021/11/22 11:35:15;;;;;;;4.63;1.13;;;8.10;99.90;;;;;;5110640;27;20035;-65
2021/11/22 11:37:53;;;;;;;2.05;0.70;;;8.10;99.90;;;;;;5102526;27;20090;-65
2021/11/22 11:40:48;;;;;;;4.18;1.10;;;8.10;99.90;;;;;;5095200;27;20074;-65
2021/11/22 11:43:41;;;;;;;2.25;1.08;;;8.10;99.90;;;;;;5125760;27;20047;-66
2021/11/22 11:46:22;;;;;;;4.50;1.00;;;8.10;99.90;;;;;;5129367;27;20354;-65
2021/11/22 11:49:01;;;;;;;4.45;0.80;;;8.20;99.90;;;;;;5117149;27;20438;-65
2021/11/22 11:51:44;;;;;;;2.95;1.02;;;8.30;99.90;;;;;;5138821;27;20042;-66
2021/11/22 11:54:13;;;;;;;2.78;0.80;;;8.30;99.90;;;;;;5078026;28;20062;-65
2021/11/22 11:56:50;;;;;;;3.78;0.80;;;8.20;99.90;;;;;;5110847;28;20051;-65
2021/11/22 11:59:27;;;;;;;1.08;0.60;;;8.30;99.90;;;;;;5088426;28;20044;-66
2021/11/22 12:02:19;;;;;;;3.10;0.70;;;8.40;99.90;;;;;;5111370;28;20047;-65
2021/11/22 12:04:45;;;;;;;2.85;0.70;;;8.40;99.90;;;;;;5106453;27;20078;-65
2021/11/22 12:07:11;;;;;;;2.70;0.70;;;8.40;99.90;;;;;;5107157;27;20684;-65
2021/11/22 12:09:42;;;;;;;5.28;0.70;;;8.30;99.90;;;;;;5099317;27;20051;-66
2021/11/22 12:12:08;;;;;;;1.90;0.85;;;8.30;99.90;;;;;;5125394;27;20036;-66
2021/11/22 12:14:54;;;;;;;3.45;1.30;;;8.30;99.90;;;;;;5100576;28;20052;-66
2021/11/22 12:17:35;;;;;;;2.00;1.00;;;8.30;99.90;;;;;;5114118;27;20050;-66
2021/11/22 12:20:06;;;;;;;2.83;0.63;;;8.40;99.90;;;;;;5081167;28;20146;-66
2021/11/22 12:22:38;;;;;;;3.25;0.70;;;8.40;99.90;;;;;;5108697;28;20103;-66
2021/11/22 12:25:05;;;;;;;1.95;0.80;;;8.30;99.90;;;;;;5107460;28;20077;-65
2021/11/22 12:27:30;;;;;;;3.13;0.75;;;8.30;99.90;;;;;;5134014;27;20108;-67
2021/11/22 12:29:58;;;;;;;1.88;0.80;;;8.40;99.90;;;;;;5090300;28;20047;-65
2021/11/22 12:32:35;;;;;;;3.38;1.00;;;8.40;99.90;;;;;;5118516;27;20131;-62
2021/11/22 12:35:04;;;;;;;2.40;0.70;;;8.40;99.90;;;;;;5108929;27;20043;-63
2021/11/22 12:37:33;;;;;;;1.50;0.93;;;8.40;99.90;;;;;;5124776;27;20286;-63
2021/11/22 12:40:14;;;;;;;1.50;0.65;;;8.40;99.90;;;;;;5092594;28;20059;-63
2021/11/22 12:42:49;;;;;;;4.18;1.00;;;8.50;99.90;;;;;;5085528;28;20058;-66
2021/11/22 12:45:17;;;;;;;2.42;0.75;;;8.50;99.90;;;;;;5101430;27;20043;-65
2021/11/22 12:47:42;;;;;;;3.05;0.70;;;8.50;99.90;;;;;;5088340;28;20351;-65
2021/11/22 12:50:10;;;;;;;5.60;0.80;;;8.50;99.90;;;;;;5115549;28;20146;-65
2021/11/22 12:52:36;;;;;;;0.77;0.77;;;8.60;99.90;;;;;;5100177;28;20044;-65
2021/11/22 12:55:20;;;;;;;2.55;0.60;;;8.70;99.90;;;;;;5075263;28;20044;-65
2021/11/22 12:57:49;;;;;;;4.30;0.90;;;8.70;99.90;;;;;;5102020;28;20078;-66
2021/11/22 13:00:35;;;;;;;2.10;0.65;;;8.60;99.90;;;;;;5100213;27;20067;-65
2021/11/22 13:03:03;;;;;;;1.45;0.80;;;8.60;99.90;;;;;;5119874;27;20067;-65